Dubuque, IA

6:17 PM CDT on July 25, 2016 (GMT -0500)
Eagle Valley | | Change Station

Elev 837 ft 42.54 °N, 90.66 °W | Updated 2 minutes ago

Scattered Clouds
Scattered Clouds
84.7 °F
Feels Like 87 °F
N
1.0
Wind Variable Wind from SE
Gusts 1.0 mph

Today
High -- | Low -- °F
--% Chance of Precip.
Yesterday
High -- | Low -- °F
Precip. -- in
Pressure 30.01 in
Visibility 10.0 miles
Clouds Few 4700 ft
Scattered Clouds 5500 ft
Heat Index 87 °F
Dew Point 65 °F
Humidity 52%
Rainfall 0.00 in
Snow Depth Not available.
5:48 AM 8:29 PM
Waning Gibbous, 61% visible
METAR KDBQ 252253Z 34008KT 10SM FEW047 SCT055 28/18 A3003 RMK AO2 SLP163 T02780178
Pressure 30.01 in
Visibility 10.0 miles
Clouds Few 4700 ft
Scattered Clouds 5500 ft
Heat Index 87 °F
Dew Point 65 °F
Humidity 52%
Rainfall 0.00 in
Snow Depth Not available.
5:48 AM 8:29 PM
Waning Gibbous, 61% visible
METAR KDBQ 252253Z 34008KT 10SM FEW047 SCT055 28/18 A3003 RMK AO2 SLP163 T02780178

10-Day Weather Forecast

Almanac

Astronomy

Jul. 25, 2016 Rise Set
Actual Time
Civil Twilight
Nautical Twilight
Astronomical Twilight
Moon
Length of Visible Light
Length of Day
Tomorrow will be .
, % of the Moon is Illuminated

Today's Extremes

State Highs State Lows

Community

WunderPhotos

Upload Photos

1,927,441 photos uploaded!

WunderBlog® & News

Nearby

Air Quality

  Air Quality AQ Index Pollutant
Not available.

Snow Depth

Station Depth Elevation

Earthquake Activity

City Distance Mag. Time & Date
Minimum magnitude displayed is 2.5.

Coastal Water Temperatures

Place Temperature

Stations

Nearby Weather Stations

Station Location Temp. Windchill Dew Point Humidity Wind Precip. Elev Updated Type
                   

Watches & Warnings

There are currently no watches in effect.